Terminal Aerodrome Forecast
Issued by NWS Twin Cities, MN

Home | Current Version | Previous Version | Graphics & Text | Print | Product List | Glossary On
Versions: 1 2 3 4 5 6 7 8 9 10 11 12 13 14 15 16 17
000
FTUS43 KMPX 272337
TAFSTC
TAF
KSTC 272337Z 2800/2824 16011KT P6SM SCT035
     FM280700 14012KT P6SM VCTS BKN035CB
     FM281000 14013KT 6SM -SHRA BR OVC030
      TEMPO 2810/2813 3SM TSRA OVC015CB
     FM281300 15014G20KT 5SM -SHRA BR OVC015
     FM281600 17015G24KT P6SM VCSH SCT015 BKN030
     FM282100 25016G25KT P6SM BKN035=

USA.gov is the U.S. government's official web portal to all federal, state and local government web resources and services.